Time;durP1;ratioP1;P1;durP2;ratioP2;P2;SDS_P1;SDS_P2;PMS_P1;PMS_P2;Temp;Humidity;BMP_temperature;BMP_pressure;BME280_temperature;BME280_humidity;BME280_pressure;Samples;Min_cycle;Max_cycle;Signal;HPM_P1;HPM_P2
2022/03/28 00:01:56;;;;;;;11.88;7.40;;;;;;;10.60;47.88;97538.09;6181931;23;20061;-79
2022/03/28 00:04:25;;;;;;;12.25;7.93;;;;;;;10.64;48.11;97536.00;6181602;23;20010;-80
2022/03/28 00:06:53;;;;;;;15.00;8.02;;;;;;;10.57;48.26;97537.59;6181526;23;20033;-80
2022/03/28 00:09:21;;;;;;;11.43;7.45;;;;;;;10.49;48.89;97541.84;6181973;23;20077;-80
2022/03/28 00:11:48;;;;;;;15.45;7.97;;;;;;;10.40;49.16;97539.34;6182002;23;20073;-79
2022/03/28 00:14:16;;;;;;;10.00;7.30;;;;;;;10.31;49.85;97533.28;6182120;23;20073;-78
2022/03/28 00:16:43;;;;;;;13.65;8.05;;;;;;;10.26;49.99;97530.28;6181152;23;20049;-79
2022/03/28 00:19:11;;;;;;;13.90;7.53;;;;;;;10.21;50.02;97533.38;6181892;23;20278;-79
2022/03/28 00:21:40;;;;;;;11.20;7.07;;;;;;;10.17;50.44;97521.63;6182149;23;20029;-80
2022/03/28 00:24:08;;;;;;;13.80;7.85;;;;;;;10.15;50.54;97528.78;6182328;23;20012;-80
2022/03/28 00:26:36;;;;;;;12.07;7.35;;;;;;;10.08;50.41;97522.56;6181414;23;20077;-80
2022/03/28 00:29:04;;;;;;;9.90;7.10;;;;;;;10.05;50.68;97517.66;6181900;23;20085;-80
2022/03/28 00:31:31;;;;;;;12.48;7.75;;;;;;;9.97;51.04;97512.38;6181995;23;20065;-79
2022/03/28 00:33:59;;;;;;;9.15;6.60;;;;;;;9.90;51.02;97517.41;6181976;23;20045;-79
2022/03/28 00:36:27;;;;;;;10.63;7.57;;;;;;;9.81;51.29;97515.72;6182567;23;20080;-79
2022/03/28 00:38:56;;;;;;;11.93;7.57;;;;;;;9.75;51.28;97511.13;6183849;23;20022;-80
2022/03/28 00:41:27;;;;;;;11.93;7.38;;;;;;;9.69;51.41;97509.97;6184189;23;20484;-80
2022/03/28 00:43:56;;;;;;;14.32;8.85;;;;;;;9.64;51.29;97510.44;6184125;23;20025;-79
2022/03/28 00:46:24;;;;;;;12.55;7.18;;;;;;;9.62;51.52;97501.94;6183197;23;20029;-79
2022/03/28 00:48:52;;;;;;;12.48;8.40;;;;;;;9.63;51.69;97503.56;6184076;23;20033;-79
2022/03/28 00:51:22;;;;;;;11.20;8.10;;;;;;;9.68;51.78;97501.31;6184404;23;20053;-79
2022/03/28 00:53:51;;;;;;;14.00;8.50;;;;;;;9.76;51.53;97492.75;6184396;23;20001;-79
2022/03/28 00:56:20;;;;;;;14.90;7.68;;;;;;;9.84;51.72;97492.78;6183652;23;20061;-80
2022/03/28 00:58:48;;;;;;;16.98;9.27;;;;;;;9.93;50.13;97488.44;6183388;23;20036;-80
2022/03/28 01:01:16;;;;;;;13.63;8.23;;;;;;;9.99;50.17;97492.19;6184157;23;20057;-79
2022/03/28 01:03:44;;;;;;;14.45;8.63;;;;;;;10.05;50.49;97488.97;6183773;23;20061;-80
2022/03/28 01:06:12;;;;;;;13.65;9.15;;;;;;;10.08;49.94;97486.06;6183350;23;20024;-80
2022/03/28 01:08:40;;;;;;;15.32;8.82;;;;;;;10.07;49.70;97485.22;6183441;23;20001;-79
2022/03/28 01:11:10;;;;;;;14.30;8.75;;;;;;;10.04;49.78;97485.56;6183619;23;20085;-79
2022/03/28 01:13:40;;;;;;;14.05;8.52;;;;;;;10.00;50.10;97486.03;6183870;23;20041;-79
2022/03/28 01:16:09;;;;;;;12.90;8.25;;;;;;;9.94;49.95;97490.06;6182624;23;20029;-80
2022/03/28 01:18:36;;;;;;;12.07;7.93;;;;;;;9.90;50.07;97481.75;6183860;23;20009;-79
2022/03/28 01:21:06;;;;;;;12.55;8.57;;;;;;;9.92;50.44;97486.78;6183473;23;20081;-79
2022/03/28 01:23:33;;;;;;;14.90;8.55;;;;;;;9.89;50.00;97480.09;6183840;23;20064;-79
2022/03/28 01:26:01;;;;;;;15.25;8.05;;;;;;;9.85;50.11;97473.56;6182951;23;20061;-80
2022/03/28 01:28:28;;;;;;;12.70;8.35;;;;;;;9.84;50.18;97481.56;6183608;23;20036;-79
2022/03/28 01:30:56;;;;;;;13.02;9.25;;;;;;;9.84;49.95;97474.56;6183667;23;20021;-79
2022/03/28 01:33:24;;;;;;;13.40;9.45;;;;;;;9.82;50.03;97475.69;6183646;23;20074;-81
2022/03/28 01:35:52;;;;;;;14.05;8.52;;;;;;;9.76;50.34;97471.91;6183158;23;20097;-78
2022/03/28 01:38:22;;;;;;;21.55;9.65;;;;;;;9.70;50.76;97477.72;6183680;23;20069;-79
2022/03/28 01:40:51;;;;;;;14.90;9.30;;;;;;;9.66;50.75;97479.00;6183175;23;20009;-80
2022/03/28 01:43:21;;;;;;;15.38;9.68;;;;;;;9.59;50.92;97468.38;6183506;23;20073;-80
2022/03/28 01:45:49;;;;;;;12.50;9.60;;;;;;;9.51;50.84;97467.50;6183175;23;20009;-79
2022/03/28 01:48:17;;;;;;;17.63;9.68;;;;;;;9.45;50.74;97467.16;6183265;23;20025;-79
2022/03/28 01:50:44;;;;;;;18.20;9.52;;;;;;;9.43;50.97;97466.50;6183371;23;20010;-79
2022/03/28 01:53:12;;;;;;;19.73;9.75;;;;;;;9.43;50.87;97463.09;6183703;23;20077;-80
2022/03/28 01:55:41;;;;;;;15.32;9.20;;;;;;;9.41;50.94;97462.41;6182948;23;20012;-79
2022/03/28 01:58:09;;;;;;;17.40;9.10;;;;;;;9.35;51.02;97458.63;6182801;23;20016;-80
2022/03/28 02:00:37;;;;;;;14.63;9.38;;;;;;;9.22;50.97;97463.41;6183267;23;20077;-80
2022/03/28 02:03:04;;;;;;;17.10;9.25;;;;;;;9.13;51.24;97453.91;6183333;23;20032;-80
2022/03/28 02:05:32;;;;;;;18.55;8.60;;;;;;;9.05;51.50;97462.47;6183483;23;20005;-79
2022/03/28 02:07:59;;;;;;;17.83;8.93;;;;;;;8.97;51.29;97465.84;6182602;23;20005;-79
2022/03/28 02:10:27;;;;;;;17.85;9.77;;;;;;;8.90;51.65;97454.41;6183007;23;20073;-79
2022/03/28 02:12:56;;;;;;;16.02;9.07;;;;;;;8.83;52.09;97458.53;6183010;23;20025;-80
2022/03/28 02:15:24;;;;;;;17.02;9.70;;;;;;;8.77;52.15;97456.56;6183445;23;20025;-80
2022/03/28 02:17:52;;;;;;;16.90;10.55;;;;;;;8.70;52.24;97452.91;6182268;23;20049;-79
2022/03/28 02:20:20;;;;;;;15.38;9.38;;;;;;;8.59;52.05;97459.97;6183128;23;20009;-79
2022/03/28 02:22:48;;;;;;;14.27;9.20;;;;;;;8.52;52.42;97451.13;6182861;23;20053;-80
2022/03/28 02:25:16;;;;;;;14.77;9.60;;;;;;;8.48;52.69;97452.38;6183079;23;20011;-80
2022/03/28 02:27:44;;;;;;;14.50;9.02;;;;;;;8.49;52.73;97448.81;6182225;23;20006;-80
2022/03/28 02:30:15;;;;;;;16.73;10.02;;;;;;;8.51;53.17;97444.28;6183127;23;20029;-80
2022/03/28 02:32:43;;;;;;;15.07;9.38;;;;;;;8.49;53.08;97451.41;6183370;23;20065;-79
2022/03/28 02:35:11;;;;;;;16.20;9.75;;;;;;;8.45;53.01;97447.47;6182696;23;20065;-80
2022/03/28 02:37:39;;;;;;;16.73;10.05;;;;;;;8.43;53.13;97446.81;6181446;23;20013;-79
2022/03/28 02:40:09;;;;;;;17.35;9.75;;;;;;;8.41;53.29;97448.72;6182856;23;20006;-80
2022/03/28 02:42:36;;;;;;;15.98;9.70;;;;;;;8.37;53.55;97450.75;6182964;23;20010;-79
2022/03/28 02:45:05;;;;;;;14.80;9.27;;;;;;;8.34;53.54;97450.25;6182793;23;20021;-80
2022/03/28 02:47:34;;;;;;;16.08;9.70;;;;;;;8.32;53.25;97445.19;6181656;23;20017;-80
2022/03/28 02:50:03;;;;;;;15.52;9.45;;;;;;;8.37;53.75;97442.97;6182335;23;20041;-79
2022/03/28 02:52:30;;;;;;;13.88;9.05;;;;;;;8.44;53.07;97440.66;6182359;23;20073;-80
2022/03/28 02:54:58;;;;;;;15.80;9.13;;;;;;;8.52;52.89;97435.50;6182017;23;20081;-79
2022/03/28 02:57:26;;;;;;;12.38;9.13;;;;;;;8.64;52.97;97438.72;6181401;23;20009;-80
2022/03/28 02:59:53;;;;;;;15.15;10.00;;;;;;;8.73;52.23;97439.63;6182069;23;20048;-80
2022/03/28 03:02:21;;;;;;;15.52;9.50;;;;;;;8.74;51.95;97430.84;6182330;23;20544;-80
2022/03/28 03:04:50;;;;;;;13.63;10.00;;;;;;;8.78;51.45;97430.38;6182204;23;20021;-79
2022/03/28 03:07:19;;;;;;;17.02;10.98;;;;;;;8.77;51.08;97430.56;6182147;23;20072;-79
2022/03/28 03:09:48;;;;;;;14.48;10.50;;;;;;;8.71;51.13;97424.16;6181913;23;20016;-80
2022/03/28 03:12:16;;;;;;;17.23;9.95;;;;;;;8.68;51.47;97421.88;6182352;23;20021;-80
2022/03/28 03:14:43;;;;;;;15.68;10.60;;;;;;;8.67;51.40;97417.63;6182512;23;20096;-80
2022/03/28 03:17:11;;;;;;;15.13;9.77;;;;;;;8.64;51.29;97423.13;6181391;23;20009;-78
2022/03/28 03:19:40;;;;;;;15.40;9.80;;;;;;;8.58;51.44;97419.31;6181900;23;20029;-79
2022/03/28 03:22:09;;;;;;;18.42;10.02;;;;;;;8.55;51.40;97416.19;6182360;23;20005;-79
2022/03/28 03:24:37;;;;;;;15.13;9.15;;;;;;;8.51;51.35;97413.09;6182409;23;20020;-80
2022/03/28 03:27:05;;;;;;;17.25;9.95;;;;;;;8.44;51.97;97412.06;6181351;23;20024;-80
2022/03/28 03:29:33;;;;;;;12.60;8.88;;;;;;;8.39;52.39;97409.03;6182189;23;20054;-80
2022/03/28 03:32:00;;;;;;;17.25;9.93;;;;;;;8.32;52.24;97408.00;6182463;23;20057;-80
2022/03/28 03:34:28;;;;;;;19.45;9.38;;;;;;;8.22;52.48;97403.69;6182206;23;20013;-79
2022/03/28 03:36:56;;;;;;;14.25;9.25;;;;;;;8.19;52.81;97403.97;6181157;23;20028;-80
2022/03/28 03:39:28;;;;;;;21.25;10.15;;;;;;;8.18;53.19;97404.94;6182908;23;20010;-79
2022/03/28 03:41:57;;;;;;;16.35;9.75;;;;;;;8.16;53.05;97404.28;6183137;23;20049;-79
2022/03/28 03:44:24;;;;;;;16.02;10.10;;;;;;;8.23;53.18;97405.31;6181784;23;20021;-80
2022/03/28 03:46:52;;;;;;;17.77;11.18;;;;;;;8.33;52.91;97400.06;6181532;23;20070;-80
2022/03/28 03:49:20;;;;;;;17.58;10.35;;;;;;;8.37;52.66;97396.19;6181299;23;20012;-80
2022/03/28 03:51:47;;;;;;;13.63;9.57;;;;;;;8.36;53.07;97401.53;6182205;23;20057;-79
2022/03/28 03:54:15;;;;;;;15.90;9.60;;;;;;;8.40;52.92;97395.09;6182312;23;20099;-80
2022/03/28 03:56:44;;;;;;;16.45;10.23;;;;;;;8.44;52.65;97404.25;6180636;23;20045;-80
2022/03/28 03:59:11;;;;;;;19.85;11.00;;;;;;;8.43;52.44;97400.81;6182057;23;20020;-80
2022/03/28 04:01:39;;;;;;;18.63;10.45;;;;;;;8.38;52.42;97394.41;6181775;23;20600;-80
2022/03/28 04:04:07;;;;;;;16.55;10.40;;;;;;;8.31;52.71;97399.38;6181922;23;20045;-80
2022/03/28 04:06:35;;;;;;;20.65;10.68;;;;;;;8.23;53.08;97397.50;6181070;23;20002;-79
2022/03/28 04:09:03;;;;;;;17.48;10.75;;;;;;;8.16;53.04;97399.06;6181626;23;20006;-79
2022/03/28 04:11:30;;;;;;;18.67;10.13;;;;;;;8.09;53.61;97405.81;6183270;23;20081;-80
2022/03/28 04:13:59;;;;;;;13.65;9.18;;;;;;;8.11;53.72;97403.91;6183167;23;20022;-80
2022/03/28 04:16:27;;;;;;;15.75;10.73;;;;;;;8.14;53.31;97403.59;6182731;23;20025;-80
2022/03/28 04:18:54;;;;;;;16.95;10.68;;;;;;;8.14;53.29;97403.59;6183702;23;20061;-79
2022/03/28 04:21:22;;;;;;;21.08;9.77;;;;;;;8.17;53.03;97398.09;6183792;23;20239;-79
2022/03/28 04:23:49;;;;;;;14.80;9.98;;;;;;;8.24;53.15;97395.72;6183579;23;20033;-80
2022/03/28 04:26:17;;;;;;;18.15;10.20;;;;;;;8.24;53.15;97391.38;6183169;23;20036;-80
2022/03/28 04:28:45;;;;;;;17.63;10.35;;;;;;;8.19;52.83;97396.16;6183030;23;20018;-80
2022/03/28 04:31:15;;;;;;;16.27;10.10;;;;;;;8.10;53.40;97388.44;6183267;23;20023;-79
2022/03/28 04:33:43;;;;;;;16.45;10.10;;;;;;;8.04;53.40;97389.84;6183069;23;20073;-80
2022/03/28 04:36:10;;;;;;;18.83;10.35;;;;;;;8.01;53.39;97388.34;6182149;23;20081;-80
2022/03/28 04:38:38;;;;;;;19.35;10.20;;;;;;;7.99;53.27;97387.69;6182652;23;20048;-80
2022/03/28 04:41:05;;;;;;;22.90;10.38;;;;;;;7.96;53.73;97385.38;6183968;23;20021;-79
2022/03/28 04:43:33;;;;;;;17.33;10.75;;;;;;;7.90;53.57;97385.97;6183597;23;20085;-80
2022/03/28 04:46:01;;;;;;;18.42;10.90;;;;;;;7.84;53.66;97384.75;6181672;23;20020;-80
2022/03/28 04:48:30;;;;;;;24.02;11.63;;;;;;;7.82;54.16;97393.66;6182145;23;20078;-81
2022/03/28 04:50:57;;;;;;;20.38;11.52;;;;;;;7.83;53.88;97393.50;6182912;23;20009;-80
2022/03/28 04:53:25;;;;;;;19.77;10.65;;;;;;;7.83;54.23;97379.72;6182112;23;20041;-80
2022/03/28 04:55:52;;;;;;;17.05;11.02;;;;;;;7.83;54.24;97380.53;6181601;23;20008;-81
2022/03/28 04:58:20;;;;;;;21.13;10.77;;;;;;;7.84;53.95;97386.53;6182195;23;20029;-80
2022/03/28 05:00:48;;;;;;;24.63;11.60;;;;;;;7.82;54.35;97388.47;6181801;23;20105;-80
2022/03/28 05:03:15;;;;;;;19.20;10.75;;;;;;;7.82;53.89;97381.47;6182400;23;20041;-80
2022/03/28 05:05:44;;;;;;;19.98;10.10;;;;;;;7.79;54.36;97384.38;6181591;23;20010;-79
2022/03/28 05:08:12;;;;;;;20.55;11.38;;;;;;;7.72;54.21;97385.94;6181605;23;20044;-80
2022/03/28 05:10:40;;;;;;;20.63;12.32;;;;;;;7.67;54.47;97385.53;6181486;23;20017;-80
2022/03/28 05:13:08;;;;;;;17.98;10.43;;;;;;;7.63;54.49;97376.38;6181885;23;20065;-80
2022/03/28 05:15:36;;;;;;;18.67;10.82;;;;;;;7.60;54.40;97387.06;6181435;23;20016;-79
2022/03/28 05:18:04;;;;;;;21.42;11.25;;;;;;;7.61;54.91;97396.50;6180232;23;20024;-80
2022/03/28 05:20:31;;;;;;;20.27;10.88;;;;;;;7.68;54.73;97394.97;6180979;23;20077;-81
2022/03/28 05:23:00;;;;;;;21.75;10.50;;;;;;;7.71;54.96;97389.47;6180914;23;20021;-80
2022/03/28 05:25:28;;;;;;;19.95;10.98;;;;;;;7.73;54.24;97392.75;6182382;23;20026;-80
2022/03/28 05:27:57;;;;;;;18.55;9.70;;;;;;;7.77;54.28;97383.69;6181472;23;20007;-80
2022/03/28 05:30:24;;;;;;;20.23;11.45;;;;;;;7.83;54.04;97390.91;6181553;23;20036;-79
2022/03/28 05:32:52;;;;;;;21.40;10.70;;;;;;;7.86;53.94;97383.81;6182256;23;20021;-80
2022/03/28 05:35:19;;;;;;;19.73;10.95;;;;;;;7.89;53.96;97384.31;6181543;23;20052;-80
2022/03/28 05:37:47;;;;;;;18.80;10.88;;;;;;;7.91;53.98;97377.19;6181504;23;20077;-79
2022/03/28 05:40:16;;;;;;;21.23;11.13;;;;;;;7.92;54.00;97386.63;6181410;23;20057;-80
2022/03/28 05:42:44;;;;;;;19.25;11.02;;;;;;;7.97;54.09;97381.00;6182138;23;20077;-79
2022/03/28 05:45:13;;;;;;;17.98;11.75;;;;;;;8.07;54.04;97373.97;6182264;23;20031;-80
2022/03/28 05:47:41;;;;;;;25.35;11.68;;;;;;;8.12;53.69;97379.53;6181659;23;20010;-79
2022/03/28 05:50:09;;;;;;;17.63;10.40;;;;;;;8.20;53.58;97384.00;6182860;23;20074;-79
2022/03/28 05:52:37;;;;;;;22.08;11.80;;;;;;;8.30;53.40;97389.13;6181035;23;20013;-80
2022/03/28 05:55:06;;;;;;;24.17;12.23;;;;;;;8.31;53.04;97377.75;6181876;23;20089;-79
2022/03/28 05:57:36;;;;;;;21.50;11.55;;;;;;;8.25;53.07;97385.19;6180106;23;20053;-79
2022/03/28 06:00:05;;;;;;;21.02;10.85;;;;;;;8.21;52.93;97386.44;6181500;23;20073;-81
2022/03/28 06:02:33;;;;;;;17.23;10.52;;;;;;;8.24;53.20;97385.31;6181705;23;20069;-80
2022/03/28 06:05:01;;;;;;;17.58;11.23;;;;;;;8.33;53.19;97391.41;6181642;23;20021;-79
2022/03/28 06:07:28;;;;;;;18.25;10.48;;;;;;;8.44;53.17;97389.47;6180434;23;20006;-80
2022/03/28 06:09:56;;;;;;;15.15;9.95;;;;;;;8.57;52.73;97388.25;6181825;23;20061;-80
2022/03/28 06:12:24;;;;;;;27.90;11.75;;;;;;;8.70;52.17;97393.09;6181731;23;20037;-80
2022/03/28 06:14:53;;;;;;;19.35;11.75;;;;;;;8.73;51.78;97388.41;6181582;23;20027;-80
2022/03/28 06:17:21;;;;;;;22.63;10.88;;;;;;;8.69;51.79;97396.66;6180742;23;20028;-80
2022/03/28 06:19:49;;;;;;;19.13;10.82;;;;;;;8.63;52.17;97393.69;6182471;23;20018;-79
2022/03/28 06:22:17;;;;;;;20.15;11.23;;;;;;;8.61;52.56;97392.19;6181262;23;20001;-80
2022/03/28 06:24:45;;;;;;;18.00;11.18;;;;;;;8.64;52.71;97403.13;6182827;23;20009;-79
2022/03/28 06:27:13;;;;;;;19.02;10.65;;;;;;;8.72;52.33;97404.16;6183056;23;20049;-79
2022/03/28 06:29:40;;;;;;;21.23;11.50;;;;;;;8.71;51.98;97399.94;6183094;23;20050;-80
2022/03/28 06:32:09;;;;;;;20.83;11.38;;;;;;;8.71;52.02;97402.53;6181324;23;20048;-80
2022/03/28 06:34:37;;;;;;;24.25;11.32;;;;;;;8.74;51.95;97402.22;6180821;23;20017;-81
2022/03/28 06:37:05;;;;;;;25.50;11.52;;;;;;;8.78;51.70;97398.34;6180472;23;20016;-79
2022/03/28 06:39:34;;;;;;;19.48;10.80;;;;;;;8.84;51.97;97392.56;6181545;23;20077;-80
2022/03/28 06:42:02;;;;;;;19.70;11.30;;;;;;;8.86;51.93;97390.63;6181753;23;20027;-80
2022/03/28 06:44:30;;;;;;;18.83;12.05;;;;;;;8.85;51.80;97391.56;6182136;23;20069;-80
2022/03/28 06:46:57;;;;;;;24.98;12.48;;;;;;;8.81;52.18;97388.47;6181351;23;20230;-80
2022/03/28 06:49:27;;;;;;;24.65;13.05;;;;;;;8.80;52.25;97392.03;6181668;23;20021;-79
2022/03/28 06:51:54;;;;;;;21.38;12.60;;;;;;;8.82;52.61;97384.91;6182159;23;20010;-80
2022/03/28 06:54:22;;;;;;;25.70;13.43;;;;;;;8.89;52.58;97385.09;6182309;23;20029;-80
2022/03/28 06:56:49;;;;;;;22.42;13.82;;;;;;;8.99;52.26;97382.44;6181141;23;20045;-79
2022/03/28 06:59:19;;;;;;;23.63;13.30;;;;;;;9.12;52.09;97374.19;6181099;23;20001;-79
2022/03/28 07:01:47;;;;;;;31.52;15.30;;;;;;;9.28;51.83;97384.72;6181641;23;20016;-80
2022/03/28 07:04:15;;;;;;;26.73;13.75;;;;;;;9.46;51.87;97372.41;6181939;23;20017;-79
2022/03/28 07:06:43;;;;;;;24.35;13.48;;;;;;;9.68;51.62;97380.66;6181696;23;20035;-79
2022/03/28 07:09:11;;;;;;;27.38;14.18;;;;;;;9.87;51.02;97377.00;6182312;23;20017;-80
2022/03/28 07:11:38;;;;;;;24.77;13.77;;;;;;;10.08;50.52;97376.59;6182388;23;20015;-80
2022/03/28 07:14:07;;;;;;;24.63;13.50;;;;;;;10.29;50.20;97366.53;6183164;23;20010;-80
2022/03/28 07:16:35;;;;;;;21.33;13.07;;;;;;;10.51;50.55;97372.09;6181672;23;20015;-79
2022/03/28 07:19:04;;;;;;;24.23;13.40;;;;;;;10.74;50.10;97361.03;6182322;23;20310;-79
2022/03/28 07:21:31;;;;;;;25.20;13.13;;;;;;;10.96;50.72;97367.38;6182333;23;20032;-79
2022/03/28 07:24:00;;;;;;;21.45;12.25;;;;;;;11.16;49.49;97360.81;6182719;23;20045;-82
2022/03/28 07:26:28;;;;;;;22.02;12.70;;;;;;;11.38;49.19;97367.09;6182025;23;20012;-81
2022/03/28 07:29:00;;;;;;;18.38;11.63;;;;;;;11.58;48.36;97364.09;6182911;23;20006;-81
2022/03/28 07:31:27;;;;;;;20.07;12.30;;;;;;;11.77;47.97;97358.47;6183255;23;20013;-81
2022/03/28 07:34:29;;;;;;;19.67;12.13;;;;;;;11.98;47.79;97359.69;6182844;23;20021;-82
2022/03/28 07:36:43;;;;;;;17.73;13.05;;;;;;;12.25;48.26;97354.00;6182127;23;20082;-81
2022/03/28 07:39:12;;;;;;;22.42;14.32;;;;;;;12.44;46.84;97351.88;6182865;23;20082;-82
2022/03/28 07:41:40;;;;;;;23.45;14.13;;;;;;;12.62;46.69;97344.56;6182941;23;20025;-81
2022/03/28 07:44:08;;;;;;;22.45;14.52;;;;;;;12.79;46.60;97345.25;6183021;23;20065;-81
2022/03/28 07:46:35;;;;;;;17.30;13.20;;;;;;;12.97;46.92;97343.09;6182064;23;20006;-81
2022/03/28 07:49:03;;;;;;;22.48;14.57;;;;;;;13.17;46.89;97340.78;6183021;23;20010;-81
2022/03/28 07:51:31;;;;;;;23.52;13.43;;;;;;;13.36;46.29;97339.47;6183147;23;20029;-81
2022/03/28 07:53:58;;;;;;;25.77;15.90;;;;;;;13.53;45.97;97334.81;6182847;23;20048;-81
2022/03/28 07:56:27;;;;;;;33.58;16.77;;;;;;;13.72;45.47;97338.69;6182357;23;20014;-81
2022/03/28 07:58:55;;;;;;;28.17;15.43;;;;;;;13.92;45.17;97332.88;6182695;23;20029;-81
2022/03/28 08:01:22;;;;;;;33.63;16.88;;;;;;;14.15;43.67;97327.50;6182919;23;20065;-81
2022/03/28 08:03:50;;;;;;;31.08;15.18;;;;;;;14.40;42.84;97327.91;6182913;23;20013;-81
2022/03/28 08:06:18;;;;;;;21.77;14.77;;;;;;;14.66;43.33;97324.75;6182100;23;20006;-81
2022/03/28 08:08:46;;;;;;;28.23;14.90;;;;;;;14.94;41.79;97323.97;6182773;23;20033;-81
2022/03/28 08:11:15;;;;;;;23.65;15.07;;;;;;;15.24;40.91;97322.72;6182763;23;20054;-82
2022/03/28 08:13:44;;;;;;;28.85;15.32;;;;;;;15.57;39.42;97318.66;6182534;23;20061;-81
2022/03/28 08:16:13;;;;;;;23.85;13.95;;;;;;;15.89;39.71;97316.38;6181900;23;20049;-81
2022/03/28 08:18:41;;;;;;;27.75;14.10;;;;;;;16.22;39.27;97313.81;6182646;23;20009;-81
2022/03/28 08:21:09;;;;;;;22.80;14.70;;;;;;;16.56;38.63;97315.47;6182869;23;20065;-81
2022/03/28 08:23:37;;;;;;;22.05;13.55;;;;;;;16.91;37.74;97309.22;6182869;23;20057;-82
2022/03/28 08:26:05;;;;;;;39.95;15.88;;;;;;;17.23;37.11;97304.88;6182248;23;20024;-80
2022/03/28 08:28:33;;;;;;;25.95;14.13;;;;;;;17.54;36.43;97306.84;6182555;23;20005;-82
2022/03/28 08:31:03;;;;;;;24.55;14.07;;;;;;;17.84;35.95;97301.06;6182839;23;20080;-81
2022/03/28 08:33:30;;;;;;;21.45;13.77;;;;;;;18.13;35.34;97299.69;6183163;23;20029;-81
2022/03/28 08:35:58;;;;;;;24.38;14.10;;;;;;;18.43;36.03;97291.16;6182134;23;20026;-82
2022/03/28 08:38:25;;;;;;;23.35;14.90;;;;;;;18.76;34.04;97300.66;6182734;23;20033;-81
2022/03/28 08:40:53;;;;;;;23.35;13.88;;;;;;;19.07;33.73;97305.09;6182845;23;20013;-81
2022/03/28 08:43:23;;;;;;;24.40;14.75;;;;;;;19.41;32.59;97305.53;6182963;23;20017;-81
2022/03/28 08:45:51;;;;;;;22.05;12.98;;;;;;;19.73;32.85;97299.06;6182031;23;20001;-80
2022/03/28 08:48:21;;;;;;;24.70;14.07;;;;;;;20.04;31.81;97288.50;6182832;23;20009;-82
2022/03/28 08:50:50;;;;;;;23.63;14.25;;;;;;;20.31;31.84;97294.22;6182656;23;20057;-82
2022/03/28 08:53:18;;;;;;;22.90;13.90;;;;;;;20.62;30.14;97295.81;6182849;23;20068;-81
2022/03/28 08:55:47;;;;;;;21.60;13.00;;;;;;;20.92;28.78;97293.03;6182094;23;20021;-81
2022/03/28 08:58:14;;;;;;;22.10;12.90;;;;;;;21.20;28.83;97291.53;6184399;23;20068;-81
2022/03/28 09:00:43;;;;;;;26.27;14.35;;;;;;;21.53;28.18;97292.78;6184383;23;20028;-81
2022/03/28 09:03:11;;;;;;;23.35;12.50;;;;;;;21.88;28.55;97292.66;6184387;23;20053;-81
2022/03/28 09:05:41;;;;;;;19.30;12.88;;;;;;;22.24;26.83;97284.56;6184350;23;20005;-79
2022/03/28 09:08:10;;;;;;;20.67;12.95;;;;;;;22.56;26.03;97284.81;6183521;23;20470;-79
2022/03/28 09:10:44;;;;;;;19.13;12.60;;;;;;;22.91;26.25;97283.75;6184215;23;20041;-79
2022/03/28 09:13:14;;;;;;;19.83;12.38;;;;;;;23.22;25.60;97288.50;6184714;23;20037;-79
2022/03/28 09:15:46;;;;;;;18.25;11.80;;;;;;;23.55;24.48;97278.78;6184392;23;20012;-79
2022/03/28 09:18:22;;;;;;;19.00;12.38;;;;;;;23.91;23.95;97275.75;6183826;23;20016;-80
2022/03/28 09:20:52;;;;;;;18.95;11.50;;;;;;;24.26;24.26;97268.09;6183721;23;20006;-79
2022/03/28 09:23:42;;;;;;;17.55;12.57;;;;;;;24.68;23.71;97269.25;6183900;23;20069;-80
2022/03/28 09:26:13;;;;;;;17.73;11.52;;;;;;;25.05;23.08;97266.53;6175592;23;20053;-81
2022/03/28 09:28:49;;;;;;;21.30;11.98;;;;;;;25.45;21.76;97278.53;6183999;23;20073;-79
2022/03/28 09:31:27;;;;;;;15.13;11.43;;;;;;;25.84;21.99;97272.78;6184280;23;20074;-80
2022/03/28 09:34:09;;;;;;;20.80;11.95;;;;;;;26.29;20.74;97260.59;6183771;23;20148;-80
2022/03/28 09:36:44;;;;;;;20.10;12.40;;;;;;;26.70;20.35;97265.97;6183386;23;20011;-80
2022/03/28 09:39:16;;;;;;;24.45;12.88;;;;;;;27.04;20.74;97261.88;6183808;23;20061;-80
2022/03/28 09:41:45;;;;;;;15.68;11.55;;;;;;;27.39;20.38;97266.34;6183947;23;20029;-79
2022/03/28 09:44:13;;;;;;;17.15;12.18;;;;;;;27.75;18.56;97258.16;6183875;23;20059;-80
2022/03/28 09:46:41;;;;;;;18.25;12.55;;;;;;;28.02;17.26;97256.97;6182927;23;20014;-80
2022/03/28 09:49:09;;;;;;;17.83;12.02;;;;;;;28.32;16.58;97256.72;6183666;23;20065;-80
2022/03/28 09:51:37;;;;;;;18.42;12.23;;;;;;;28.55;16.02;97249.06;6183790;23;20048;-80
2022/03/28 09:54:20;;;;;;;20.13;12.65;;;;;;;28.79;15.22;97245.63;6184161;23;20077;-80
2022/03/28 09:57:10;;;;;;;19.02;12.15;;;;;;;29.13;14.60;97243.69;6183501;23;20021;-80
2022/03/28 09:59:39;;;;;;;18.63;12.07;;;;;;;29.57;15.03;97247.19;6183849;23;20082;-80
2022/03/28 10:02:21;;;;;;;15.63;11.82;;;;;;;30.12;14.03;97242.13;6184430;23;20029;-80
2022/03/28 10:04:52;;;;;;;18.63;12.60;;;;;;;30.79;13.69;97239.16;6184042;23;20032;-80
2022/03/28 10:07:21;;;;;;;14.20;11.95;;;;;;;31.57;12.81;97239.28;6183508;23;20014;-80
2022/03/28 10:09:52;;;;;;;18.52;11.95;;;;;;;32.41;12.13;97234.44;6183947;23;20017;-80
2022/03/28 10:12:22;;;;;;;18.02;11.82;;;;;;;33.23;11.87;97227.72;6184198;23;20013;-80
2022/03/28 10:14:54;;;;;;;17.13;12.05;;;;;;;34.01;11.68;97221.63;6184172;23;20036;-80
2022/03/28 10:17:24;;;;;;;16.73;12.07;;;;;;;34.80;10.46;97218.84;6184176;23;20021;-80
2022/03/28 10:19:52;;;;;;;14.45;12.18;;;;;;;35.51;10.12;97218.16;6184094;23;20024;-80
2022/03/28 10:22:25;;;;;;;14.07;11.48;;;;;;;36.04;9.55;97215.88;6184159;23;20033;-80
2022/03/28 10:24:58;;;;;;;16.17;12.20;;;;;;;36.58;9.18;97206.88;6183915;23;20021;-80
2022/03/28 10:27:27;;;;;;;15.25;11.95;;;;;;;37.02;9.31;97201.75;6182807;23;20025;-80
2022/03/28 10:29:54;;;;;;;14.82;12.40;;;;;;;37.23;9.59;97188.84;6183524;23;20032;-80
2022/03/28 10:32:22;;;;;;;16.95;11.73;;;;;;;37.42;9.09;97198.34;6183212;23;20002;-80
2022/03/28 10:34:52;;;;;;;14.75;11.73;;;;;;;37.56;8.90;97182.47;6181705;23;20032;-81
2022/03/28 10:37:29;;;;;;;16.58;11.30;;;;;;;37.94;8.76;97183.94;6169192;23;20384;-82
2022/03/28 11:44:45;;;;;;;12.80;8.95;;;;;;;39.34;6.74;97094.69;6146678;23;20009;-82
2022/03/28 11:47:17;;;;;;;12.20;9.32;;;;;;;38.95;7.64;97089.19;6189137;23;20021;-81
2022/03/28 11:50:00;;;;;;;13.90;9.38;;;;;;;38.42;6.77;97084.03;6212176;23;20035;-81
2022/03/28 11:52:29;;;;;;;12.57;9.70;;;;;;;38.11;7.26;97068.44;6212935;23;20219;-81
2022/03/28 11:54:59;;;;;;;12.90;8.52;;;;;;;37.69;7.54;97068.91;6213062;23;20033;-81
2022/03/28 12:00:18;;;;;;;11.05;8.98;;;;;;;36.86;7.36;97057.53;6213253;23;20017;-81
2022/03/28 12:02:53;;;;;;;18.75;8.95;;;;;;;36.44;7.18;97052.34;6213258;23;20032;-80
2022/03/28 12:05:25;;;;;;;12.10;9.63;;;;;;;35.76;7.56;97052.78;6213015;23;20005;-81
2022/03/28 12:07:54;;;;;;;16.33;9.48;;;;;;;34.73;8.33;97050.53;6212465;23;20021;-81
2022/03/28 12:10:26;;;;;;;16.42;9.65;;;;;;;33.50;9.81;97028.47;6212712;23;20032;-80
2022/03/28 12:12:54;;;;;;;19.67;10.27;;;;;;;32.30;10.18;97028.75;6212797;23;20001;-81
2022/03/28 12:15:28;;;;;;;15.38;10.48;;;;;;;31.09;10.80;97031.44;6213025;23;20044;-81
2022/03/28 12:17:58;;;;;;;14.65;9.27;;;;;;;29.98;11.26;97020.72;6212333;23;20012;-81
2022/03/28 12:20:28;;;;;;;12.80;10.15;;;;;;;29.15;11.83;97012.38;6212910;23;20009;-80
2022/03/28 12:22:56;;;;;;;16.30;9.98;;;;;;;28.42;12.29;97017.03;6212883;23;20027;-81
2022/03/28 12:25:27;;;;;;;15.90;9.25;;;;;;;27.86;13.00;97013.09;6212880;23;20012;-80
2022/03/28 12:27:56;;;;;;;12.95;9.50;;;;;;;27.42;13.54;97013.16;6212551;23;20032;-81
2022/03/28 12:30:29;;;;;;;15.88;10.13;;;;;;;26.98;13.71;97003.28;6212543;23;20025;-80
2022/03/28 12:32:57;;;;;;;21.65;11.45;;;;;;;26.60;13.97;96998.41;6214668;23;20012;-81
2022/03/28 12:35:25;;;;;;;15.75;10.77;;;;;;;26.26;13.98;96991.03;6214817;23;20056;-80
2022/03/28 12:37:59;;;;;;;18.23;10.13;;;;;;;26.01;14.32;96986.56;6214280;23;20056;-80
2022/03/28 12:40:32;;;;;;;19.45;10.18;;;;;;;25.87;15.07;96974.81;6214851;23;20057;-80